createdAt,value
2023-04-02T00:02:22.981Z,5.99
2023-04-02T00:05:20.941Z,6.00
2023-04-02T00:07:51.618Z,6.01
2023-04-02T00:10:35.192Z,6.00
2023-04-02T00:13:10.480Z,5.99
2023-04-02T00:15:38.975Z,6.00
2023-04-02T00:18:06.667Z,5.98
2023-04-02T00:20:38.605Z,5.97
2023-04-02T00:23:06.649Z,5.97
2023-04-02T00:25:43.248Z,5.94
2023-04-02T00:28:19.022Z,5.90
2023-04-02T00:30:48.026Z,5.85
2023-04-02T00:33:18.450Z,5.88
2023-04-02T00:35:45.154Z,5.90
2023-04-02T00:38:32.237Z,5.88
2023-04-02T00:41:02.788Z,5.87
2023-04-02T00:43:35.804Z,5.89
2023-04-02T00:46:14.572Z,5.89
2023-04-02T00:49:08.889Z,5.89
2023-04-02T00:51:44.556Z,5.87
2023-04-02T00:54:15.707Z,5.80
2023-04-02T00:56:48.783Z,5.81
2023-04-02T00:59:29.670Z,5.79
2023-04-02T01:02:14.784Z,5.76
2023-04-02T01:04:56.951Z,5.76
2023-04-02T01:07:42.432Z,5.78
2023-04-02T01:10:23.060Z,5.79
2023-04-02T01:13:36.289Z,5.79
2023-04-02T01:16:25.867Z,5.77
2023-04-02T01:19:13.559Z,5.73
2023-04-02T01:22:09.487Z,5.67
2023-04-02T01:24:39.032Z,5.70
2023-04-02T01:27:16.391Z,5.68
2023-04-02T01:29:48.578Z,5.65
2023-04-02T01:32:19.686Z,5.65
2023-04-02T01:34:48.558Z,5.64
2023-04-02T01:37:24.024Z,5.61
2023-04-02T01:40:20.730Z,5.59
2023-04-02T01:43:22.182Z,5.58
2023-04-02T01:45:49.634Z,5.57
2023-04-02T01:48:24.577Z,5.61
2023-04-02T01:50:54.877Z,5.57
2023-04-02T01:53:24.351Z,5.56
2023-04-02T01:55:53.994Z,5.56
2023-04-02T01:58:27.434Z,5.54
2023-04-02T02:01:21.947Z,5.52
2023-04-02T02:03:51.779Z,5.48
2023-04-02T02:06:19.427Z,5.47
2023-04-02T02:08:53.242Z,5.46
2023-04-02T02:11:23.108Z,5.43
2023-04-02T02:13:58.991Z,5.37
2023-04-02T02:16:31.779Z,5.35
2023-04-02T02:19:02.921Z,5.31
2023-04-02T02:21:48.352Z,5.31
2023-04-02T02:24:21.692Z,5.29
2023-04-02T02:26:55.284Z,5.24
2023-04-02T02:29:26.298Z,5.21
2023-04-02T02:31:55.833Z,5.15
2023-04-02T02:34:29.741Z,5.10
2023-04-02T02:37:06.960Z,5.06
2023-04-02T02:39:39.152Z,5.04
2023-04-02T02:42:22.553Z,5.02
2023-04-02T02:44:51.943Z,5.03
2023-04-02T02:47:36.756Z,4.91
2023-04-02T02:50:10.355Z,4.88
2023-04-02T02:52:39.258Z,4.87
2023-04-02T02:55:14.739Z,4.89
2023-04-02T02:58:06.913Z,4.82
2023-04-02T03:00:42.302Z,4.81
2023-04-02T03:03:21.865Z,4.84
2023-04-02T03:06:03.224Z,4.83
2023-04-02T03:08:37.045Z,4.79
2023-04-02T03:11:11.733Z,4.79
2023-04-02T03:13:42.802Z,4.78
2023-04-02T03:16:34.880Z,4.73
2023-04-02T03:19:16.327Z,4.78
2023-04-02T03:21:48.632Z,4.73
2023-04-02T03:24:45.890Z,4.72
2023-04-02T03:27:20.506Z,4.71
2023-04-02T03:30:23.071Z,4.69
2023-04-02T03:32:54.418Z,4.68
2023-04-02T03:35:35.466Z,4.67
2023-04-02T03:38:18.065Z,4.61
2023-04-02T03:41:03.529Z,4.57
2023-04-02T03:43:40.746Z,4.56
2023-04-02T03:46:32.298Z,4.53
2023-04-02T03:49:12.488Z,4.49
2023-04-02T03:52:05.199Z,4.51
2023-04-02T03:54:33.155Z,4.54
2023-04-02T03:57:00.943Z,4.56
2023-04-02T03:59:42.653Z,4.55
2023-04-02T04:02:33.448Z,4.55
2023-04-02T04:05:03.562Z,4.56
2023-04-02T04:07:38.457Z,4.54
2023-04-02T04:10:07.733Z,4.53
2023-04-02T04:12:43.509Z,4.51
2023-04-02T04:15:21.350Z,4.49
2023-04-02T04:18:10.359Z,4.44
2023-04-02T04:20:57.261Z,4.36
2023-04-02T04:23:37.541Z,4.32
2023-04-02T04:26:21.053Z,4.23
2023-04-02T04:29:15.520Z,4.24
2023-04-02T04:31:55.691Z,4.25
2023-04-02T04:34:46.909Z,4.23
2023-04-02T04:37:21.667Z,4.23
2023-04-02T04:39:56.321Z,4.17
2023-04-02T04:42:29.153Z,4.11
2023-04-02T04:45:16.821Z,4.04
2023-04-02T04:48:08.166Z,4.02
2023-04-02T04:50:42.594Z,4.07
2023-04-02T04:53:17.238Z,4.05
2023-04-02T04:55:47.725Z,4.03
2023-04-02T04:58:35.944Z,4.07
2023-04-02T05:01:10.509Z,4.06
2023-04-02T05:03:58.405Z,4.04
2023-04-02T05:06:41.138Z,4.00
2023-04-02T05:09:41.402Z,3.85
2023-04-02T05:12:37.896Z,3.72
2023-04-02T05:15:33.968Z,3.67
2023-04-02T05:18:27.510Z,3.60
2023-04-02T05:21:07.090Z,3.46
2023-04-02T05:23:40.201Z,3.40
2023-04-02T05:26:18.915Z,3.40
2023-04-02T05:29:05.786Z,3.27
2023-04-02T05:31:54.374Z,3.25
2023-04-02T05:34:29.936Z,3.16
2023-04-02T05:36:58.572Z,3.13
2023-04-02T05:39:27.263Z,3.15
2023-04-02T05:42:06.424Z,3.07
2023-04-02T05:45:05.049Z,3.00
2023-04-02T05:47:33.597Z,3.01
2023-04-02T05:50:05.836Z,2.99
2023-04-02T05:52:43.126Z,2.90
2023-04-02T05:55:12.624Z,2.90
2023-04-02T05:58:35.461Z,2.92
2023-04-02T06:01:30.897Z,2.94
2023-04-02T06:04:16.159Z,2.89
2023-04-02T06:06:47.263Z,2.81
2023-04-02T06:09:28.853Z,2.78
2023-04-02T06:12:44.532Z,2.74
2023-04-02T06:15:19.027Z,2.78
2023-04-02T06:17:51.374Z,2.76
2023-04-02T06:20:20.924Z,2.78
2023-04-02T06:22:52.828Z,2.79
2023-04-02T06:25:40.516Z,2.79
2023-04-02T06:28:17.122Z,2.84
2023-04-02T06:30:55.114Z,2.87
2023-04-02T06:33:22.082Z,2.89
2023-04-02T06:35:53.346Z,2.90
2023-04-02T06:38:30.658Z,2.88
2023-04-02T06:41:00.838Z,2.97
2023-04-02T06:43:49.506Z,2.97
2023-04-02T06:46:34.431Z,2.85
2023-04-02T06:49:23.749Z,2.84
2023-04-02T06:51:56.840Z,2.89
2023-04-02T06:54:24.672Z,2.95
2023-04-02T06:56:57.334Z,2.98
2023-04-02T06:59:27.985Z,3.00
2023-04-02T07:02:00.862Z,3.02
2023-04-02T07:04:35.499Z,3.01
2023-04-02T07:07:02.929Z,3.00
2023-04-02T07:09:33.664Z,3.02
2023-04-02T07:12:10.806Z,2.98
2023-04-02T07:14:40.011Z,2.96
2023-04-02T07:17:07.830Z,2.96
2023-04-02T07:19:34.385Z,3.04
2023-04-02T07:22:00.858Z,3.06
2023-04-02T07:24:33.128Z,3.09
2023-04-02T07:26:59.645Z,3.09
2023-04-02T07:29:26.267Z,3.15
2023-04-02T07:31:53.886Z,3.14
2023-04-02T07:34:22.597Z,3.06
2023-04-02T07:40:40.980Z,3.06
2023-04-02T07:43:08.478Z,3.06
2023-04-02T07:48:42.040Z,3.11
2023-04-02T07:52:10.362Z,3.11
2023-04-02T07:54:46.124Z,3.13
2023-04-02T07:57:39.004Z,3.15
2023-04-02T08:05:37.006Z,3.17
2023-04-02T08:08:09.177Z,3.14
2023-04-02T08:10:36.036Z,3.14
2023-04-02T08:13:09.201Z,3.15
2023-04-02T08:15:35.967Z,3.19
2023-04-02T08:18:12.364Z,3.17
2023-04-02T08:20:42.191Z,3.21
2023-04-02T08:23:31.961Z,3.20
2023-04-02T08:25:58.489Z,3.27
2023-04-02T08:28:28.749Z,3.34
2023-04-02T08:30:55.565Z,3.35
2023-04-02T08:33:22.187Z,3.32
2023-04-02T08:35:50.687Z,3.43
2023-04-02T08:38:49.535Z,3.45
2023-04-02T08:41:24.032Z,3.44
2023-04-02T08:47:41.023Z,3.51
2023-04-02T08:50:29.066Z,3.54
2023-04-02T08:53:01.638Z,3.57
2023-04-02T08:55:53.123Z,3.69
2023-04-02T08:58:44.190Z,3.66
2023-04-02T09:01:24.453Z,3.74
2023-04-02T09:03:54.679Z,3.74
2023-04-02T09:06:23.066Z,3.69
2023-04-02T09:09:01.285Z,3.74
2023-04-02T09:11:57.174Z,3.73
2023-04-02T09:14:36.006Z,3.82
2023-04-02T09:17:16.880Z,3.86
2023-04-02T09:19:52.833Z,3.86
2023-04-02T09:22:32.224Z,3.96
2023-04-02T09:25:04.290Z,4.01
2023-04-02T09:27:33.650Z,4.03
2023-04-02T09:30:18.729Z,4.18
2023-04-02T09:32:52.523Z,4.33
2023-04-02T09:35:30.540Z,4.32
2023-04-02T09:38:07.471Z,4.38
2023-04-02T09:41:19.312Z,4.53
2023-04-02T09:46:31.619Z,4.92
2023-04-02T09:49:01.472Z,5.16
2023-04-02T09:51:34.345Z,5.19
2023-04-02T09:54:03.753Z,5.25
2023-04-02T09:59:22.982Z,6.49
2023-04-02T10:02:22.227Z,6.91
2023-04-02T10:05:39.864Z,7.74
2023-04-02T10:08:30.044Z,8.18
2023-04-02T10:11:52.518Z,8.53
2023-04-02T10:23:31.490Z,9.94
2023-04-02T10:26:30.089Z,10.28
2023-04-02T10:29:26.370Z,10.59
2023-04-02T10:32:29.673Z,10.77
2023-04-02T10:35:27.646Z,10.94
2023-04-02T10:45:32.956Z,11.39
2023-04-02T10:53:19.861Z,11.66
2023-04-02T10:56:04.096Z,11.85
2023-04-02T10:58:49.233Z,12.07
2023-04-02T11:01:28.829Z,11.98
2023-04-02T11:04:28.697Z,12.14
2023-04-02T11:07:13.319Z,12.12
2023-04-02T11:09:47.865Z,12.25
2023-04-02T11:12:42.202Z,12.53
2023-04-02T11:15:19.156Z,12.42
2023-04-02T11:17:47.197Z,12.17
2023-04-02T11:20:43.930Z,12.61
2023-04-02T11:23:13.715Z,12.69
2023-04-02T11:25:43.511Z,12.55
2023-04-02T11:28:35.891Z,12.58
2023-04-02T11:31:05.304Z,12.52
2023-04-02T11:33:38.429Z,12.72
2023-04-02T11:36:44.469Z,12.97
2023-04-02T11:39:17.344Z,13.25
2023-04-02T11:42:26.637Z,13.57
2023-04-02T11:44:54.710Z,13.61
2023-04-02T11:47:26.304Z,13.60
2023-04-02T11:49:56.078Z,13.60
2023-04-02T11:52:31.526Z,13.52
2023-04-02T11:55:03.230Z,13.21
2023-04-02T11:58:20.590Z,12.75
2023-04-02T12:01:02.305Z,12.70
2023-04-02T12:03:53.593Z,12.67
2023-04-02T12:06:54.237Z,12.40
2023-04-02T12:09:49.697Z,12.17
2023-04-02T12:12:31.486Z,12.16
2023-04-02T12:14:58.715Z,12.09
2023-04-02T12:17:38.894Z,11.89
2023-04-02T12:20:09.438Z,11.90
2023-04-02T12:22:47.329Z,11.65
2023-04-02T12:25:32.712Z,11.50
2023-04-02T12:28:19.957Z,11.43
2023-04-02T12:30:48.186Z,11.34
2023-04-02T12:33:27.731Z,11.14
2023-04-02T12:36:02.529Z,10.89
2023-04-02T12:38:53.728Z,11.14
2023-04-02T12:41:27.365Z,11.36
2023-04-02T12:44:02.169Z,11.54
2023-04-02T12:46:30.648Z,11.56
2023-04-02T12:49:43.524Z,11.48
2023-04-02T12:52:21.319Z,11.32
2023-04-02T12:54:59.578Z,11.48
2023-04-02T12:57:26.192Z,11.78
2023-04-02T12:59:58.351Z,11.58
2023-04-02T13:02:27.991Z,11.57
2023-04-02T13:05:01.432Z,11.60
2023-04-02T13:07:33.405Z,11.52
2023-04-02T13:10:05.430Z,11.62
2023-04-02T13:12:36.107Z,11.58
2023-04-02T13:15:05.767Z,11.43
2023-04-02T13:17:39.973Z,11.39
2023-04-02T13:20:38.538Z,11.27
2023-04-02T13:23:29.676Z,11.49
2023-04-02T13:25:58.919Z,11.58
2023-04-02T13:28:26.606Z,11.47
2023-04-02T13:30:53.221Z,11.29
2023-04-02T13:33:20.463Z,11.34
2023-04-02T13:35:48.295Z,11.30
2023-04-02T13:38:14.745Z,11.37
2023-04-02T13:40:41.378Z,11.40
2023-04-02T13:43:11.824Z,11.36
2023-04-02T13:45:40.939Z,11.29
2023-04-02T13:48:14.104Z,11.55
2023-04-02T13:50:41.313Z,11.61
2023-04-02T13:53:13.642Z,11.31
2023-04-02T13:55:42.771Z,11.15
2023-04-02T13:58:10.862Z,11.00
2023-04-02T14:00:37.883Z,11.05
2023-04-02T14:03:11.338Z,11.05
2023-04-02T14:05:42.535Z,10.92
2023-04-02T14:08:10.959Z,10.91
2023-04-02T14:10:54.260Z,10.92
2023-04-02T14:13:37.119Z,10.92
2023-04-02T14:16:31.309Z,10.99
2023-04-02T14:19:28.063Z,11.05
2023-04-02T14:22:30.517Z,11.09
2023-04-02T14:25:36.584Z,11.04
2023-04-02T14:28:40.306Z,11.06
2023-04-02T14:31:34.155Z,11.08
2023-04-02T14:34:22.416Z,11.08
2023-04-02T14:37:04.380Z,11.00
2023-04-02T14:39:57.535Z,10.94
2023-04-02T14:42:46.227Z,11.01
2023-04-02T14:45:28.422Z,10.97
2023-04-02T14:48:02.429Z,10.96
2023-04-02T14:50:42.746Z,10.92
2023-04-02T14:53:34.719Z,10.84
2023-04-02T14:56:08.004Z,10.85
2023-04-02T14:58:39.062Z,10.83
2023-04-02T15:01:13.949Z,10.88
2023-04-02T15:03:51.788Z,10.79
2023-04-02T15:06:26.218Z,10.80
2023-04-02T15:09:09.814Z,10.74
2023-04-02T15:11:39.344Z,10.69
2023-04-02T15:14:23.510Z,10.67
2023-04-02T15:16:49.970Z,10.68
2023-04-02T15:19:18.147Z,10.64
2023-04-02T15:22:20.389Z,10.61
2023-04-02T15:24:57.649Z,10.52
2023-04-02T15:27:27.376Z,10.52
2023-04-02T15:30:07.373Z,10.47
2023-04-02T15:32:33.897Z,10.34
2023-04-02T15:35:23.315Z,10.35
2023-04-02T15:37:54.170Z,10.31
2023-04-02T15:40:28.805Z,10.35
2023-04-02T15:43:20.271Z,10.24
2023-04-02T15:46:03.764Z,10.26
2023-04-02T15:48:48.492Z,10.15
2023-04-02T15:51:36.989Z,10.05
2023-04-02T15:54:19.541Z,9.95
2023-04-02T15:57:11.745Z,9.93
2023-04-02T16:00:09.766Z,10.00
2023-04-02T16:03:20.820Z,9.98
2023-04-02T16:06:16.698Z,9.88
2023-04-02T16:09:08.068Z,9.81
2023-04-02T16:11:43.780Z,9.77
2023-04-02T16:14:22.621Z,9.74
2023-04-02T16:16:52.444Z,9.72
2023-04-02T16:19:28.183Z,9.69
2023-04-02T16:22:19.261Z,9.66
2023-04-02T16:24:49.971Z,9.64
2023-04-02T16:27:24.111Z,9.63
2023-04-02T16:30:23.392Z,9.62
2023-04-02T16:33:01.498Z,9.62
2023-04-02T16:36:07.092Z,9.59
2023-04-02T16:38:50.316Z,9.55
2023-04-02T16:41:28.543Z,9.46
2023-04-02T16:44:22.806Z,9.43
2023-04-02T16:47:12.714Z,9.40
2023-04-02T16:49:57.645Z,9.42
2023-04-02T16:52:35.933Z,9.39
2023-04-02T16:55:23.467Z,9.35
2023-04-02T16:58:18.507Z,9.36
2023-04-02T17:01:15.591Z,9.33
2023-04-02T17:03:44.939Z,9.27
2023-04-02T17:06:29.583Z,9.23
2023-04-02T17:09:16.424Z,9.19
2023-04-02T17:11:49.262Z,9.16
2023-04-02T17:14:29.575Z,9.09
2023-04-02T17:17:01.491Z,9.11
2023-04-02T17:19:29.660Z,9.05
2023-04-02T17:22:04.940Z,9.06
2023-04-02T17:24:41.981Z,9.03
2023-04-02T17:27:17.690Z,8.99
2023-04-02T17:29:47.332Z,8.93
2023-04-02T17:32:27.313Z,8.93
2023-04-02T17:34:55.585Z,8.92
2023-04-02T17:37:39.723Z,8.86
2023-04-02T17:40:19.174Z,8.80
2023-04-02T17:43:13.650Z,8.77
2023-04-02T17:45:47.770Z,8.72
2023-04-02T17:48:26.729Z,8.67
2023-04-02T17:50:55.990Z,8.62
2023-04-02T17:53:37.853Z,8.61
2023-04-02T17:56:38.476Z,8.57
2023-04-02T17:59:21.649Z,8.50
2023-04-02T18:02:04.854Z,8.43
2023-04-02T18:04:46.578Z,8.38
2023-04-02T18:07:28.272Z,8.35
2023-04-02T18:10:39.524Z,8.27
2023-04-02T18:13:14.933Z,8.20
2023-04-02T18:16:08.891Z,8.16
2023-04-02T18:18:46.827Z,8.11
2023-04-02T18:21:24.529Z,8.05
2023-04-02T18:24:12.614Z,8.04
2023-04-02T18:27:21.364Z,7.97
2023-04-02T18:30:04.273Z,7.93
2023-04-02T18:32:55.018Z,7.87
2023-04-02T18:35:34.549Z,7.81
2023-04-02T18:38:01.671Z,7.77
2023-04-02T18:40:49.673Z,7.70
2023-04-02T18:43:36.870Z,7.64
2023-04-02T18:46:28.249Z,7.64
2023-04-02T18:49:06.376Z,7.58
2023-04-02T18:51:38.832Z,7.54
2023-04-02T18:54:24.010Z,7.52
2023-04-02T18:56:50.938Z,7.46
2023-04-02T18:59:44.664Z,7.40
2023-04-02T19:02:26.124Z,7.35
2023-04-02T19:05:04.241Z,7.31
2023-04-02T19:07:36.854Z,7.27
2023-04-02T19:10:20.887Z,7.24
2023-04-02T19:12:47.372Z,7.21
2023-04-02T19:15:20.111Z,7.16
2023-04-02T19:18:07.757Z,7.12
2023-04-02T19:21:00.858Z,7.10
2023-04-02T19:23:59.741Z,7.07
2023-04-02T19:26:34.926Z,7.04
2023-04-02T19:29:22.884Z,7.02
2023-04-02T19:32:05.821Z,6.96
2023-04-02T19:34:46.145Z,6.94
2023-04-02T19:37:27.346Z,6.90
2023-04-02T19:40:19.824Z,6.86
2023-04-02T19:42:49.225Z,6.78
2023-04-02T19:45:33.468Z,6.74
2023-04-02T19:48:09.880Z,6.71
2023-04-02T19:50:37.021Z,6.69
2023-04-02T19:53:03.521Z,6.66
2023-04-02T19:55:30.455Z,6.62
2023-04-02T19:58:08.489Z,6.60
2023-04-02T20:00:43.623Z,6.55
2023-04-02T20:03:10.244Z,6.54
2023-04-02T20:05:40.300Z,6.50
2023-04-02T20:08:06.864Z,6.46
2023-04-02T20:10:35.607Z,6.42
2023-04-02T20:13:02.854Z,6.37
2023-04-02T20:15:29.627Z,6.31
2023-04-02T20:17:56.190Z,6.25
2023-04-02T20:20:25.608Z,6.20
2023-04-02T20:22:52.118Z,6.17
2023-04-02T20:25:18.619Z,6.13
2023-04-02T20:27:45.844Z,6.07
2023-04-02T20:30:12.912Z,6.03
2023-04-02T20:32:40.447Z,5.98
2023-04-02T20:35:07.832Z,5.97
2023-04-02T20:37:35.176Z,5.92
2023-04-02T20:40:01.962Z,5.89
2023-04-02T20:42:28.683Z,5.86
2023-04-02T20:44:55.414Z,5.80
2023-04-02T20:47:24.910Z,5.78
2023-04-02T20:49:52.189Z,5.76
2023-04-02T20:52:18.627Z,5.73
2023-04-02T20:54:46.667Z,5.69
2023-04-02T20:57:15.617Z,5.65
2023-04-02T20:59:42.307Z,5.61
2023-04-02T21:02:11.679Z,5.57
2023-04-02T21:04:38.270Z,5.54
2023-04-02T21:07:04.792Z,5.50
2023-04-02T21:09:32.008Z,5.48
2023-04-02T21:11:59.269Z,5.43
2023-04-02T21:14:26.172Z,5.39
2023-04-02T21:16:52.925Z,5.35
2023-04-02T21:19:19.329Z,5.32
2023-04-02T21:21:45.809Z,5.28
2023-04-02T21:24:12.267Z,5.24
2023-04-02T21:26:41.187Z,5.21
2023-04-02T21:29:07.886Z,5.15
2023-04-02T21:31:37.225Z,5.13
2023-04-02T21:34:04.971Z,5.10
2023-04-02T21:36:37.062Z,5.07
2023-04-02T21:39:06.956Z,5.06
2023-04-02T21:41:36.353Z,5.02
2023-04-02T21:44:05.708Z,4.99
2023-04-02T21:46:36.488Z,4.95
2023-04-02T21:49:06.352Z,4.89
2023-04-02T21:51:34.834Z,4.85
2023-04-02T21:54:01.953Z,4.82
2023-04-02T21:56:34.414Z,4.80
2023-04-02T21:59:02.563Z,4.79
2023-04-02T22:01:34.855Z,4.72
2023-04-02T22:04:07.273Z,4.68
2023-04-02T22:06:40.944Z,4.63
2023-04-02T22:09:11.402Z,4.64
2023-04-02T22:11:42.943Z,4.60
2023-04-02T22:14:10.035Z,4.56
2023-04-02T22:16:37.678Z,4.53
2023-04-02T22:19:15.623Z,4.49
2023-04-02T22:21:42.806Z,4.44
2023-04-02T22:24:16.115Z,4.41
2023-04-02T22:26:44.224Z,4.41
2023-04-02T22:29:11.154Z,4.37
2023-04-02T22:31:38.348Z,4.32
2023-04-02T22:34:06.107Z,4.28
2023-04-02T22:36:32.845Z,4.25
2023-04-02T22:39:00.328Z,4.21
2023-04-02T22:41:31.902Z,4.19
2023-04-02T22:44:01.728Z,4.14
2023-04-02T22:46:29.864Z,4.10
2023-04-02T22:48:56.949Z,4.07
2023-04-02T22:51:24.906Z,4.02
2023-04-02T22:53:54.108Z,4.01
2023-04-02T22:56:27.515Z,3.99
2023-04-02T22:58:54.097Z,3.94
2023-04-02T23:01:33.402Z,3.94
2023-04-02T23:04:00.531Z,3.87
2023-04-02T23:06:27.849Z,3.84
2023-04-02T23:08:54.438Z,3.81
2023-04-02T23:11:26.282Z,3.77
2023-04-02T23:13:56.537Z,3.73
2023-04-02T23:16:24.331Z,3.71
2023-04-02T23:18:50.969Z,3.69
2023-04-02T23:21:19.184Z,3.66
2023-04-02T23:23:46.450Z,3.63
2023-04-02T23:26:21.110Z,3.61
2023-04-02T23:28:48.919Z,3.60
2023-04-02T23:31:20.114Z,3.54
2023-04-02T23:33:46.847Z,3.50
2023-04-02T23:36:34.761Z,3.46
2023-04-02T23:39:11.244Z,3.46
2023-04-02T23:41:40.083Z,3.42
2023-04-02T23:44:07.151Z,3.42
2023-04-02T23:46:33.982Z,3.38
2023-04-02T23:49:03.737Z,3.35
2023-04-02T23:51:32.407Z,3.32
2023-04-02T23:53:59.296Z,3.29
2023-04-02T23:56:25.953Z,3.26
2023-04-02T23:58:52.617Z,3.22
